Time;durP1;ratioP1;P1;durP2;ratioP2;P2;SDS_P1;SDS_P2;PMS_P1;PMS_P2;Temp;Humidity;BMP_temperature;BMP_pressure;BME280_temperature;BME280_humidity;BME280_pressure;Samples;Min_cycle;Max_cycle;Signal;HPM_P1;HPM_P2
2021/11/10 00:01:42;;;;;;;12.97;6.37;;;;;;;0.75;100.00;99618.88;5069716;28;20028;-69
2021/11/10 00:04:08;;;;;;;12.48;5.50;;;;;;;0.76;100.00;99636.53;5068261;28;20087;-69
2021/11/10 00:06:33;;;;;;;7.95;5.15;;;;;;;0.59;100.00;99630.72;5067896;28;20489;-68
2021/11/10 00:08:59;;;;;;;16.10;7.15;;;;;;;0.61;100.00;99635.94;5059367;28;20241;-68
2021/11/10 00:11:25;;;;;;;16.40;6.40;;;;;;;0.41;100.00;99608.19;5050188;28;20056;-68
2021/11/10 00:13:51;;;;;;;12.27;6.18;;;;;;;0.38;100.00;99616.41;5050113;28;20021;-68
2021/11/10 00:16:16;;;;;;;17.10;7.32;;;;;;;0.42;100.00;99628.53;5063383;28;20382;-68
2021/11/10 00:18:41;;;;;;;16.58;8.82;;;;;;;0.35;100.00;99614.00;5064654;28;20138;-68
2021/11/10 00:21:07;;;;;;;15.02;7.55;;;;;;;0.37;100.00;99630.69;5067183;28;20386;-68
2021/11/10 00:23:33;;;;;;;12.95;6.90;;;;;;;0.32;100.00;99622.22;5068484;28;20034;-69
2021/11/10 00:25:58;;;;;;;10.20;5.07;;;;;;;0.16;100.00;99619.88;5051528;28;20029;-68
2021/11/10 00:28:24;;;;;;;10.88;5.07;;;;;;;0.19;100.00;99633.78;5055031;28;20021;-68
2021/11/10 00:30:49;;;;;;;10.05;5.35;;;;;;;0.11;100.00;99636.19;5061468;28;20111;-68
2021/11/10 00:33:15;;;;;;;12.18;6.03;;;;;;;0.07;100.00;99624.06;5073062;28;20029;-68
2021/11/10 00:35:40;;;;;;;12.98;5.60;;;;;;;0.05;100.00;99628.66;5073519;28;20482;-68
2021/11/10 00:38:05;;;;;;;12.70;5.80;;;;;;;0.23;100.00;99621.09;5056003;28;20028;-68
2021/11/10 00:40:31;;;;;;;13.68;5.88;;;;;;;0.52;100.00;99645.47;5073681;28;20082;-68
2021/11/10 00:42:56;;;;;;;15.15;6.80;;;;;;;0.58;100.00;99649.50;5073372;28;20111;-68
2021/11/10 00:45:22;;;;;;;11.75;6.40;;;;;;;0.56;100.00;99660.25;5060498;28;20028;-68
2021/11/10 00:47:47;;;;;;;13.10;6.35;;;;;;;0.56;100.00;99662.91;5066835;28;20028;-68
2021/11/10 00:50:12;;;;;;;13.38;5.78;;;;;;;0.53;100.00;99663.16;5058865;28;20060;-68
2021/11/10 00:52:38;;;;;;;13.20;6.55;;;;;;;0.34;100.00;99636.22;5053488;28;20047;-68
2021/11/10 00:55:04;;;;;;;15.98;6.25;;;;;;;0.40;100.00;99657.91;5066693;28;20119;-68
2021/11/10 00:57:30;;;;;;;14.25;6.20;;;;;;;0.36;100.00;99666.25;5055382;28;20553;-68
2021/11/10 00:59:56;;;;;;;15.88;6.68;;;;;;;0.28;100.00;99664.19;5061714;28;20036;-69
2021/11/10 01:02:21;;;;;;;22.77;7.85;;;;;;;0.26;100.00;99676.75;5067659;28;20025;-69
2021/11/10 01:04:46;;;;;;;20.05;7.35;;;;;;;0.29;100.00;99657.03;5072320;28;20723;-68
2021/11/10 01:07:12;;;;;;;14.80;6.47;;;;;;;0.17;100.00;99645.53;5073447;28;20112;-69
2021/11/10 01:09:43;;;;;;;15.52;6.88;;;;;;;0.13;100.00;99644.03;5072858;28;20386;-68
2021/11/10 01:12:11;;;;;;;16.58;6.60;;;;;;;0.07;100.00;99640.03;5072895;28;20108;-69
2021/11/10 01:14:36;;;;;;;11.50;6.40;;;;;;;0.10;100.00;99638.97;5072274;28;20028;-68
2021/11/10 01:17:02;;;;;;;13.00;6.03;;;;;;;0.28;100.00;99637.56;5072679;28;20427;-69
2021/11/10 01:19:27;;;;;;;13.55;6.80;;;;;;;0.15;100.00;99616.34;5071374;28;20025;-69
2021/11/10 01:21:53;;;;;;;17.67;5.93;;;;;;;0.36;100.00;99631.66;5070495;28;20028;-68
2021/11/10 01:24:18;;;;;;;11.80;5.90;;;;;;;0.32;100.00;99617.75;5071902;28;20032;-68
2021/11/10 01:26:44;;;;;;;11.65;5.97;;;;;;;0.43;100.00;99631.06;5054824;28;20031;-68
2021/11/10 01:29:10;;;;;;;12.98;5.55;;;;;;;0.65;100.00;99624.06;5067074;28;20067;-68
2021/11/10 01:31:35;;;;;;;12.00;5.63;;;;;;;0.52;100.00;99629.50;5060082;28;20530;-68
2021/11/10 01:34:03;;;;;;;10.93;5.50;;;;;;;0.43;100.00;99623.06;5070283;28;20036;-68
2021/11/10 01:36:29;;;;;;;13.40;6.60;;;;;;;0.34;100.00;99628.25;5051751;28;20024;-69
2021/11/10 01:38:55;;;;;;;14.07;6.07;;;;;;;0.20;100.00;99618.69;5071167;28;20434;-68
2021/11/10 01:41:20;;;;;;;11.38;6.13;;;;;;;0.15;100.00;99619.00;5072476;28;20024;-68
2021/11/10 01:43:49;;;;;;;13.50;6.32;;;;;;;0.17;100.00;99625.06;5059210;28;20486;-69
2021/11/10 01:46:14;;;;;;;11.98;6.60;;;;;;;0.03;100.00;99630.63;5052340;28;20076;-68
2021/11/10 01:48:40;;;;;;;13.88;6.38;;;;;;;-0.05;100.00;99636.50;5058430;28;20065;-68
2021/11/10 01:51:05;;;;;;;9.50;5.93;;;;;;;0.03;100.00;99627.06;5072393;28;20097;-68
2021/11/10 01:53:30;;;;;;;11.50;5.28;;;;;;;-0.08;100.00;99604.81;5071848;28;20107;-68
2021/11/10 01:55:56;;;;;;;12.25;6.10;;;;;;;-0.16;100.00;99593.06;5071924;28;20025;-68
2021/11/10 01:58:22;;;;;;;15.05;6.55;;;;;;;0.02;100.00;99617.41;5065316;28;20375;-68
2021/11/10 02:00:47;;;;;;;18.75;6.05;;;;;;;0.20;100.00;99616.84;5052377;28;20021;-68
2021/11/10 02:03:13;;;;;;;12.23;5.95;;;;;;;0.15;100.00;99610.19;5070695;28;20028;-68
2021/11/10 02:05:39;;;;;;;15.00;5.70;;;;;;;0.02;100.00;99604.94;5071818;28;20020;-68
2021/11/10 02:08:04;;;;;;;10.73;5.43;;;;;;;-0.14;100.00;99599.94;5071692;28;20029;-69
2021/11/10 02:10:30;;;;;;;11.38;6.07;;;;;;;-0.09;100.00;99595.13;5066138;28;20021;-68
2021/11/10 02:12:56;;;;;;;12.13;5.95;;;;;;;-0.07;100.00;99598.53;5064567;28;20024;-69
2021/11/10 02:15:23;;;;;;;9.02;5.35;;;;;;;-0.11;100.00;99605.03;5071584;28;20033;-68
2021/11/10 02:17:50;;;;;;;12.88;6.30;;;;;;;-0.05;100.00;99587.78;5071922;28;20025;-68
2021/11/10 02:20:16;;;;;;;12.70;6.22;;;;;;;-0.16;100.00;99575.28;5071367;28;20106;-68
2021/11/10 02:22:42;;;;;;;10.00;5.78;;;;;;;-0.31;100.00;99550.72;5053207;28;20044;-68
2021/11/10 02:25:09;;;;;;;13.48;6.10;;;;;;;-0.10;100.00;99558.88;5054090;28;20075;-68
2021/11/10 02:27:36;;;;;;;13.88;5.53;;;;;;;-0.08;100.00;99567.59;5053153;28;20031;-68
2021/11/10 02:30:08;;;;;;;10.02;5.97;;;;;;;-0.12;100.00;99557.28;5053359;28;20365;-68
2021/11/10 02:32:35;;;;;;;14.68;6.00;;;;;;;-0.12;100.00;99544.84;5071298;28;20035;-68
2021/11/10 02:35:00;;;;;;;10.93;6.25;;;;;;;-0.18;100.00;99555.06;5071048;28;20021;-68
2021/11/10 02:37:26;;;;;;;16.75;6.70;;;;;;;-0.35;100.00;99556.38;5071208;28;20035;-68
2021/11/10 02:39:52;;;;;;;13.68;6.65;;;;;;;-0.32;100.00;99566.75;5067376;28;20036;-68
2021/11/10 02:42:19;;;;;;;10.20;6.00;;;;;;;-0.36;100.00;99563.50;5070719;28;21749;-68
2021/11/10 02:44:50;;;;;;;11.57;5.82;;;;;;;-0.45;100.00;99564.19;5069545;28;20025;-68
2021/11/10 02:47:17;;;;;;;15.93;6.47;;;;;;;-0.25;100.00;99562.69;5071143;28;20031;-68
2021/11/10 02:49:43;;;;;;;14.43;6.72;;;;;;;-0.20;100.00;99554.38;5066689;28;20021;-68
2021/11/10 02:52:11;;;;;;;11.75;6.68;;;;;;;-0.19;100.00;99554.25;5056925;28;20539;-68
2021/11/10 02:54:43;;;;;;;14.25;6.35;;;;;;;-0.03;100.00;99554.78;5055045;28;20052;-68
2021/11/10 02:57:09;;;;;;;13.27;6.90;;;;;;;-0.25;100.00;99534.28;5059881;28;20095;-68
2021/11/10 02:59:36;;;;;;;13.93;5.90;;;;;;;-0.31;100.00;99540.06;5069523;28;20111;-68
2021/11/10 03:02:02;;;;;;;18.10;6.53;;;;;;;-0.31;100.00;99561.34;5067585;28;20607;-68
2021/11/10 03:04:30;;;;;;;11.20;6.18;;;;;;;-0.13;100.00;99556.44;5050799;28;20028;-68
2021/11/10 03:06:56;;;;;;;13.18;6.05;;;;;;;-0.12;100.00;99557.28;5068663;28;20032;-68
2021/11/10 03:09:24;;;;;;;14.85;6.03;;;;;;;-0.23;100.00;99544.81;5070175;28;20028;-68
2021/11/10 03:11:52;;;;;;;8.35;5.20;;;;;;;-0.02;100.00;99550.31;5052114;28;20028;-68
2021/11/10 03:14:18;;;;;;;12.32;5.13;;;;;;;-0.09;100.00;99549.06;5070152;28;20031;-68
2021/11/10 03:16:43;;;;;;;12.30;5.35;;;;;;;-0.25;100.00;99542.25;5070060;28;20067;-68
2021/11/10 03:19:09;;;;;;;9.45;5.60;;;;;;;-0.19;100.00;99548.06;5068941;28;20454;-68
2021/11/10 03:21:35;;;;;;;11.23;5.80;;;;;;;-0.33;100.00;99554.44;5070387;28;20081;-68
2021/11/10 03:24:00;;;;;;;13.02;5.57;;;;;;;-0.46;100.00;99555.34;5054464;28;20037;-68
2021/11/10 03:26:25;;;;;;;10.55;6.25;;;;;;;-0.56;100.00;99556.16;5068408;28;20032;-67
2021/11/10 03:28:51;;;;;;;7.95;5.55;;;;;;;-0.63;100.00;99544.28;5054697;28;20029;-68
2021/11/10 03:31:17;;;;;;;8.40;5.35;;;;;;;-0.72;100.00;99538.69;5065529;28;20027;-68
2021/11/10 03:33:42;;;;;;;9.98;5.28;;;;;;;-0.94;100.00;99514.69;5062285;28;20075;-68
2021/11/10 03:36:08;;;;;;;9.00;5.47;;;;;;;-0.82;100.00;99544.81;5069976;28;20036;-68
2021/11/10 03:38:33;;;;;;;15.20;6.10;;;;;;;-0.90;100.00;99542.72;5069721;28;20051;-68
2021/11/10 03:40:58;;;;;;;13.15;5.90;;;;;;;-1.00;100.00;99539.88;5057157;28;20032;-68
2021/11/10 03:43:24;;;;;;;15.43;6.38;;;;;;;-0.83;100.00;99551.94;5052544;28;20506;-68
2021/11/10 03:45:50;;;;;;;11.00;5.88;;;;;;;-0.74;100.00;99548.59;5067408;28;20112;-68
2021/11/10 03:48:16;;;;;;;12.25;6.10;;;;;;;-0.77;100.00;99554.13;5070078;28;20021;-68
2021/11/10 03:50:43;;;;;;;13.85;6.07;;;;;;;-0.75;100.00;99549.56;5070066;28;20653;-68
2021/11/10 03:53:08;;;;;;;10.75;5.90;;;;;;;-0.95;100.00;99521.78;5069373;28;20575;-68
2021/11/10 03:55:37;;;;;;;12.93;5.65;;;;;;;-0.82;100.00;99550.13;5069395;28;20028;-68
2021/11/10 03:58:09;;;;;;;10.57;6.27;;;;;;;-0.90;100.00;99554.16;5069960;28;20115;-68
2021/11/10 04:00:35;;;;;;;10.82;6.05;;;;;;;-0.86;100.00;99560.13;5053013;28;20337;-68
2021/11/10 04:03:01;;;;;;;14.20;5.40;;;;;;;-0.88;100.00;99556.72;5056509;28;20505;-68
2021/11/10 04:05:26;;;;;;;10.65;5.25;;;;;;;-0.91;100.00;99557.81;5083070;28;20054;-69
2021/11/10 04:07:52;;;;;;;9.88;5.43;;;;;;;-1.00;100.00;99566.44;5098146;28;20033;-69
2021/11/10 04:10:19;;;;;;;11.55;5.32;;;;;;;-1.06;100.00;99566.03;5098450;28;20025;-68
2021/11/10 04:12:44;;;;;;;12.35;6.80;;;;;;;-1.00;100.00;99569.06;5098227;28;20029;-68
2021/11/10 04:15:09;;;;;;;15.00;6.82;;;;;;;-1.05;100.00;99575.69;5098735;28;20061;-69
2021/11/10 04:17:35;;;;;;;9.60;6.53;;;;;;;-0.99;100.00;99567.31;5097469;28;20025;-68
2021/11/10 04:20:01;;;;;;;12.60;6.70;;;;;;;-1.22;100.00;99532.63;5087720;28;20032;-68
2021/11/10 04:22:27;;;;;;;14.15;6.90;;;;;;;-1.21;100.00;99549.38;5074651;28;20494;-68
2021/11/10 04:24:53;;;;;;;12.00;6.47;;;;;;;-1.12;100.00;99581.44;5075322;28;20063;-68
2021/11/10 04:27:19;;;;;;;13.90;7.18;;;;;;;-1.21;100.00;99552.03;5066359;28;20035;-68
2021/11/10 04:29:46;;;;;;;12.50;6.57;;;;;;;-1.14;100.00;99570.09;5067622;28;20035;-68
2021/11/10 04:32:12;;;;;;;15.73;6.28;;;;;;;-1.18;100.00;99560.66;5067976;28;20485;-68
2021/11/10 04:34:38;;;;;;;9.63;6.13;;;;;;;-1.27;100.00;99555.16;5074306;28;20032;-68
2021/11/10 04:37:04;;;;;;;14.15;7.22;;;;;;;-1.50;100.00;99519.63;5073461;28;20028;-68
2021/11/10 04:39:29;;;;;;;11.02;6.78;;;;;;;-1.37;100.00;99553.13;5065818;28;20666;-68
2021/11/10 04:41:55;;;;;;;9.40;5.85;;;;;;;-1.28;100.00;99562.28;5073446;28;20029;-68
2021/11/10 04:44:21;;;;;;;11.75;6.57;;;;;;;-1.10;100.00;99557.47;5073110;28;20107;-68
2021/11/10 04:46:46;;;;;;;16.60;6.72;;;;;;;-1.12;100.00;99554.91;5070797;28;20051;-68
2021/11/10 04:49:12;;;;;;;12.85;7.18;;;;;;;-1.05;100.00;99560.59;5069795;28;20026;-68
2021/11/10 04:51:38;;;;;;;14.02;6.18;;;;;;;-1.00;100.00;99558.44;5071856;28;20056;-68
2021/11/10 04:54:08;;;;;;;8.95;5.85;;;;;;;-1.12;100.00;99569.97;5072817;28;20086;-68
2021/11/10 04:56:36;;;;;;;11.32;5.57;;;;;;;-1.19;100.00;99585.50;5072991;28;20027;-68
2021/11/10 04:59:01;;;;;;;15.68;7.45;;;;;;;-1.24;100.00;99587.63;5072055;28;20031;-72
2021/11/10 05:01:26;;;;;;;16.92;8.77;;;;;;;-1.18;100.00;99589.88;5038970;28;20033;-68
2021/11/10 05:03:53;;;;;;;14.25;7.30;;;;;;;-1.22;100.00;99582.22;5071973;28;20074;-68
2021/11/10 05:06:20;;;;;;;14.25;7.57;;;;;;;-1.11;100.00;99567.19;5068656;28;20788;-69
2021/11/10 05:08:46;;;;;;;11.82;6.75;;;;;;;-1.26;100.00;99570.94;5051694;28;20474;-68
2021/11/10 05:11:11;;;;;;;11.73;6.05;;;;;;;-1.27;100.00;99571.06;5052702;28;20491;-68
2021/11/10 05:13:37;;;;;;;11.95;6.13;;;;;;;-1.37;100.00;99544.34;5063893;28;20028;-68
2021/11/10 05:16:02;;;;;;;12.10;6.82;;;;;;;-1.28;100.00;99559.63;5070375;28;20036;-69
2021/11/10 05:18:28;;;;;;;16.25;7.55;;;;;;;-1.11;100.00;99539.81;5060546;28;20677;-69
2021/11/10 05:20:53;;;;;;;19.60;8.60;;;;;;;-1.07;100.00;99559.00;5071723;28;20024;-68
2021/11/10 05:23:20;;;;;;;19.27;8.00;;;;;;;-1.19;100.00;99548.31;5071410;28;20425;-75
2021/11/10 05:25:46;;;;;;;14.73;7.72;;;;;;;-1.32;100.00;99515.66;5051013;28;20024;-70
2021/11/10 05:28:11;;;;;;;16.98;7.15;;;;;;;-1.25;100.00;99530.19;5068637;28;20405;-71
2021/11/10 05:30:37;;;;;;;17.55;7.57;;;;;;;-1.35;100.00;99515.88;5070699;28;20050;-71
2021/11/10 05:33:03;;;;;;;11.02;6.72;;;;;;;-1.26;100.00;99547.06;5080009;28;20115;-70
2021/11/10 05:35:28;;;;;;;12.90;7.40;;;;;;;-1.30;100.00;99526.19;5068581;28;20032;-71
2021/11/10 05:37:54;;;;;;;14.98;6.90;;;;;;;-1.14;100.00;99529.41;5053902;28;20422;-73
2021/11/10 05:40:19;;;;;;;13.40;6.70;;;;;;;-1.05;100.00;99538.50;5063935;28;20035;-72
2021/11/10 05:42:44;;;;;;;10.73;5.78;;;;;;;-1.18;100.00;99539.41;5071878;28;20032;-73
2021/11/10 05:45:10;;;;;;;9.75;6.13;;;;;;;-1.00;100.00;99536.38;5070083;28;20077;-72
2021/11/10 05:47:36;;;;;;;12.38;6.25;;;;;;;-1.16;100.00;99547.25;5058542;28;20479;-72
2021/11/10 05:50:04;;;;;;;10.43;6.20;;;;;;;-1.27;100.00;99549.84;5063785;28;20109;-73
2021/11/10 05:52:30;;;;;;;11.20;6.35;;;;;;;-1.45;100.00;99541.38;5071211;28;20654;-74
2021/11/10 05:54:55;;;;;;;13.05;6.15;;;;;;;-1.48;100.00;99545.09;5065053;28;20035;-74
2021/11/10 05:57:21;;;;;;;14.02;6.88;;;;;;;-1.56;100.00;99544.78;5056900;28;20109;-74
2021/11/10 05:59:46;;;;;;;10.05;6.72;;;;;;;-1.55;100.00;99565.06;5063912;28;20024;-74
2021/11/10 06:02:12;;;;;;;12.20;7.55;;;;;;;-1.70;100.00;99552.84;5066298;28;20107;-74
2021/11/10 06:04:39;;;;;;;13.35;7.85;;;;;;;-1.71;100.00;99557.31;5044909;28;20059;-74
2021/11/10 06:07:05;;;;;;;21.20;8.25;;;;;;;-1.77;100.00;99558.59;5051497;28;20021;-75
2021/11/10 06:09:31;;;;;;;17.40;7.78;;;;;;;-1.65;100.00;99556.03;5053713;28;20043;-75
2021/11/10 06:11:57;;;;;;;14.93;7.25;;;;;;;-1.58;100.00;99563.47;5070799;28;20040;-70
2021/11/10 06:14:23;;;;;;;15.88;6.70;;;;;;;-1.69;100.00;99536.00;5069191;28;20389;-73
2021/11/10 06:16:49;;;;;;;15.43;8.35;;;;;;;-1.64;100.00;99547.16;5053162;28;20044;-75
2021/11/10 06:19:14;;;;;;;10.75;6.22;;;;;;;-1.49;100.00;99566.44;5071732;28;20032;-71
2021/11/10 06:21:40;;;;;;;10.35;6.30;;;;;;;-1.35;100.00;99569.81;5045039;28;20098;-71
2021/11/10 06:24:05;;;;;;;12.95;7.10;;;;;;;-1.31;100.00;99567.81;5051115;28;20041;-70
2021/11/10 06:26:30;;;;;;;13.27;6.95;;;;;;;-1.42;100.00;99570.34;5054449;28;20035;-71
2021/11/10 06:28:56;;;;;;;14.65;6.60;;;;;;;-1.47;100.00;99569.81;5070896;28;20029;-71
2021/11/10 06:31:21;;;;;;;12.45;6.78;;;;;;;-1.53;100.00;99544.56;5067100;28;20028;-70
2021/11/10 06:33:48;;;;;;;67.80;20.75;;;;;;;-1.41;100.00;99569.41;5057794;28;20131;-71
2021/11/10 06:36:14;;;;;;;180.13;48.55;;;;;;;-1.43;100.00;99563.34;5063306;28;20386;-70
2021/11/10 06:38:39;;;;;;;203.32;56.85;;;;;;;-1.45;100.00;99573.22;5062016;28;20226;-70
2021/11/10 06:41:05;;;;;;;131.68;40.55;;;;;;;-1.42;100.00;99567.69;5061879;28;20039;-70
2021/11/10 06:43:30;;;;;;;77.97;25.08;;;;;;;-1.35;100.00;99574.28;5064498;28;20123;-75
2021/11/10 06:45:56;;;;;;;66.68;22.40;;;;;;;-1.22;100.00;99555.66;5055912;28;20024;-75
2021/11/10 06:48:22;;;;;;;49.13;17.35;;;;;;;-1.11;100.00;99563.69;5072083;28;20043;-78
2021/11/10 06:50:47;;;;;;;43.75;16.65;;;;;;;-0.97;100.00;99555.59;5058381;28;20028;-68
2021/11/10 06:53:13;;;;;;;25.33;12.07;;;;;;;-0.51;100.00;99585.91;5071059;28;20091;-77
2021/11/10 06:55:38;;;;;;;17.00;7.47;;;;;;;-0.36;100.00;99582.13;5070091;28;20036;-71
2021/11/10 06:58:04;;;;;;;13.32;7.25;;;;;;;-0.12;100.00;99587.38;5071708;28;20032;-76
2021/11/10 07:00:30;;;;;;;16.33;7.43;;;;;;;0.07;100.00;99562.03;5061358;28;20028;-74
2021/11/10 07:02:56;;;;;;;13.60;7.03;;;;;;;0.74;100.00;99578.09;5068201;28;20474;-76
2021/11/10 07:05:21;;;;;;;9.98;6.10;;;;;;;0.96;94.38;99593.19;5050159;28;20047;-69
2021/11/10 07:07:47;;;;;;;14.27;6.53;;;;;;;1.26;93.46;99565.06;5065496;28;20418;-71
2021/11/10 07:10:12;;;;;;;12.10;6.30;;;;;;;1.93;91.53;99580.75;5070029;28;20032;-70
2021/11/10 07:12:38;;;;;;;18.95;8.73;;;;;;;2.28;87.04;99552.91;5069358;28;20409;-75
2021/11/10 07:15:05;;;;;;;11.38;6.53;;;;;;;2.98;86.09;99574.44;5054371;28;20035;-73
2021/11/10 07:17:30;;;;;;;11.80;6.28;;;;;;;2.77;81.14;99543.28;5053392;28;20151;-73
2021/11/10 07:19:55;;;;;;;13.88;6.22;;;;;;;2.84;81.59;99549.78;5069786;28;20103;-72
2021/11/10 07:22:21;;;;;;;11.73;5.95;;;;;;;3.25;81.62;99563.97;5069732;28;20067;-75
2021/11/10 07:24:46;;;;;;;14.93;5.63;;;;;;;3.50;78.96;99577.78;5070110;28;20123;-70
2021/11/10 07:27:12;;;;;;;11.05;6.40;;;;;;;3.66;78.31;99567.38;5063342;28;20072;-76
2021/11/10 07:29:37;;;;;;;14.20;6.60;;;;;;;3.55;77.65;99570.19;5057672;28;20036;-75
2021/11/10 07:32:03;;;;;;;11.95;6.32;;;;;;;3.55;78.86;99570.19;5054664;28;20883;-74
2021/11/10 07:34:28;;;;;;;14.85;6.07;;;;;;;3.41;78.33;99579.47;5071599;28;20032;-75
2021/11/10 07:36:54;;;;;;;13.07;6.78;;;;;;;3.28;76.18;99585.06;5069286;28;20036;-74
2021/11/10 07:39:20;;;;;;;12.88;8.00;;;;;;;3.36;75.17;99587.06;5065044;28;20039;-74
2021/11/10 07:41:47;;;;;;;18.77;9.68;;;;;;;3.35;75.21;99590.72;5054750;28;20026;-75
2021/11/10 07:44:14;;;;;;;18.92;10.23;;;;;;;4.49;72.89;99596.34;5056680;28;20040;-73
2021/11/10 07:46:41;;;;;;;12.45;7.25;;;;;;;5.46;69.92;99569.06;5054541;28;20032;-74
2021/11/10 07:49:06;;;;;;;12.85;7.82;;;;;;;6.32;65.01;99577.41;5059535;28;20797;-73
2021/11/10 07:51:32;;;;;;;24.38;11.40;;;;;;;6.94;62.29;99573.72;5074271;28;20020;-74
2021/11/10 07:54:00;;;;;;;15.90;9.15;;;;;;;7.49;58.87;99569.72;5066802;28;20021;-74
2021/11/10 07:56:25;;;;;;;12.23;7.28;;;;;;;7.11;59.57;99575.50;5059801;28;20044;-75
2021/11/10 07:58:51;;;;;;;12.63;6.93;;;;;;;6.35;60.85;99562.81;5065401;28;20088;-75
2021/11/10 08:01:17;;;;;;;11.77;6.55;;;;;;;6.41;63.40;99570.25;5068675;28;20031;-75
2021/11/10 08:03:43;;;;;;;16.95;7.13;;;;;;;6.67;63.57;99569.41;5069026;28;20035;-74
2021/11/10 08:06:08;;;;;;;17.20;7.55;;;;;;;7.60;59.04;99564.03;5047030;28;20037;-75
2021/11/10 08:08:34;;;;;;;26.35;9.52;;;;;;;8.97;55.84;99569.50;5068459;28;20028;-73
2021/11/10 08:11:01;;;;;;;19.38;8.25;;;;;;;9.39;53.60;99554.78;5068330;28;20653;-74
2021/11/10 08:13:28;;;;;;;27.20;9.05;;;;;;;8.71;56.83;99552.72;5049601;28;20031;-74
2021/11/10 08:15:56;;;;;;;21.25;8.25;;;;;;;9.52;53.60;99564.19;5059202;28;20047;-74
2021/11/10 08:18:21;;;;;;;26.80;9.65;;;;;;;10.50;49.95;99547.22;5069733;28;20060;-74
2021/11/10 08:20:47;;;;;;;26.17;9.05;;;;;;;10.99;50.37;99551.25;5061877;28;20068;-72
2021/11/10 08:23:18;;;;;;;15.13;7.80;;;;;;;12.38;46.78;99563.63;5065958;28;20032;-74
2021/11/10 08:25:44;;;;;;;11.63;6.40;;;;;;;12.36;45.56;99565.69;5057026;28;20537;-72
2021/11/10 08:28:09;;;;;;;11.70;6.10;;;;;;;12.50;46.36;99567.47;5063740;28;20123;-76
2021/11/10 08:30:34;;;;;;;14.77;6.22;;;;;;;13.16;44.39;99572.50;5065569;28;20036;-75
2021/11/10 08:33:00;;;;;;;11.57;5.65;;;;;;;12.78;45.36;99563.06;5068262;28;20114;-74
2021/11/10 08:35:25;;;;;;;9.88;5.72;;;;;;;12.03;46.49;99562.69;5037581;28;20061;-70
2021/11/10 08:37:56;;;;;;;11.65;6.00;;;;;;;10.44;49.85;99572.31;5059637;28;20051;-71
2021/11/10 08:40:22;;;;;;;13.20;5.70;;;;;;;9.84;52.89;99588.28;5064243;28;20035;-73
2021/11/10 08:42:47;;;;;;;11.35;5.57;;;;;;;9.13;55.16;99582.09;5063309;28;20032;-72
2021/11/10 08:45:20;;;;;;;12.73;6.22;;;;;;;9.22;55.16;99585.59;5055095;28;20044;-72
2021/11/10 08:47:48;;;;;;;8.60;5.50;;;;;;;9.74;53.79;99574.16;5061646;28;20016;-74
2021/11/10 08:50:16;;;;;;;17.80;6.00;;;;;;;9.51;55.14;99589.50;5071700;28;20484;-71
2021/11/10 08:52:42;;;;;;;11.77;6.35;;;;;;;10.54;53.05;99586.41;5072670;28;20436;-70
2021/11/10 08:55:09;;;;;;;14.48;6.32;;;;;;;10.04;54.54;99599.47;5076105;28;20032;-70
2021/11/10 08:57:36;;;;;;;11.13;5.88;;;;;;;10.02;55.85;99579.06;5073675;28;20529;-71
2021/11/10 09:00:08;;;;;;;9.50;6.18;;;;;;;9.79;54.43;99598.78;5074500;28;20056;-71
2021/11/10 09:02:33;;;;;;;11.77;6.63;;;;;;;9.59;55.75;99590.31;5075051;28;20071;-71
2021/11/10 09:04:59;;;;;;;14.52;6.25;;;;;;;9.90;56.55;99586.72;5075049;28;20106;-70
2021/11/10 09:07:25;;;;;;;30.65;13.30;;;;;;;10.08;55.90;99599.94;5065078;28;20021;-70
2021/11/10 09:09:50;;;;;;;12.18;6.43;;;;;;;9.82;54.72;99603.00;5071763;28;20815;-71
2021/11/10 09:12:15;;;;;;;12.32;7.30;;;;;;;9.83;56.64;99599.28;5083719;28;20029;-71
2021/11/10 09:14:41;;;;;;;10.90;6.45;;;;;;;10.16;55.73;99605.28;5045069;28;20028;-72
2021/11/10 09:17:06;;;;;;;13.75;7.00;;;;;;;9.62;56.27;99610.75;5069976;28;20743;-72
2021/11/10 09:19:31;;;;;;;11.80;7.15;;;;;;;9.10;57.70;99603.22;5067935;28;20389;-72
2021/11/10 09:21:57;;;;;;;10.93;7.05;;;;;;;8.21;61.81;99602.31;5069675;28;20025;-73
2021/11/10 09:24:22;;;;;;;11.98;6.70;;;;;;;7.27;64.90;99617.78;5068918;28;20075;-72
2021/11/10 09:26:49;;;;;;;13.48;6.38;;;;;;;6.70;67.64;99612.94;5081278;28;20565;-72
2021/11/10 09:29:20;;;;;;;11.15;5.82;;;;;;;6.66;68.22;99605.38;5074709;28;20031;-71
2021/11/10 09:31:46;;;;;;;10.32;6.55;;;;;;;6.82;67.87;99599.25;5068668;28;20020;-72
2021/11/10 09:34:13;;;;;;;13.82;6.78;;;;;;;6.51;68.76;99618.53;5068152;28;20040;-72
2021/11/10 09:36:46;;;;;;;16.73;6.82;;;;;;;6.44;70.25;99618.31;5077148;28;20036;-70
2021/11/10 09:39:12;;;;;;;17.80;6.95;;;;;;;6.84;68.33;99605.28;5082916;28;20024;-70
2021/11/10 09:41:39;;;;;;;15.27;7.45;;;;;;;6.83;68.13;99607.13;5073578;28;20081;-70
2021/11/10 09:44:09;;;;;;;16.48;7.72;;;;;;;6.92;68.89;99603.50;5084198;28;20033;-69
2021/11/10 09:46:37;;;;;;;19.75;7.95;;;;;;;6.83;68.29;99608.97;5088821;28;20088;-69
2021/11/10 09:49:02;;;;;;;16.45;7.97;;;;;;;6.70;70.09;99602.19;5088338;28;20066;-70
2021/11/10 09:51:28;;;;;;;16.67;8.35;;;;;;;6.54;69.75;99583.25;5083661;28;20021;-74
2021/11/10 09:54:01;;;;;;;18.70;8.85;;;;;;;6.40;72.23;99575.78;5083942;28;20028;-71
2021/11/10 09:56:26;;;;;;;17.88;8.07;;;;;;;6.74;70.79;99575.84;5084615;28;20036;-74
2021/11/10 09:58:52;;;;;;;18.90;9.30;;;;;;;6.19;73.15;99593.09;5083283;28;20020;-74
2021/11/10 10:01:19;;;;;;;17.35;9.02;;;;;;;6.28;72.51;99586.78;5083027;28;20044;-73
2021/11/10 10:03:46;;;;;;;20.08;9.25;;;;;;;6.29;73.43;99587.66;5064231;28;20039;-74
2021/11/10 10:06:16;;;;;;;16.85;8.30;;;;;;;6.15;74.02;99572.91;5073949;28;20045;-72
2021/11/10 10:08:46;;;;;;;21.85;10.88;;;;;;;6.51;72.71;99592.47;5083335;28;20047;-71
2021/11/10 10:11:12;;;;;;;19.98;10.50;;;;;;;6.56;72.89;99600.91;5080915;28;20035;-73
2021/11/10 10:13:38;;;;;;;19.23;10.50;;;;;;;6.58;73.11;99596.25;5082779;28;20021;-72
2021/11/10 10:16:03;;;;;;;18.35;9.50;;;;;;;6.82;71.13;99581.25;5079633;28;20020;-73
2021/11/10 10:18:30;;;;;;;20.40;9.68;;;;;;;6.78;71.89;99588.78;5091524;28;20051;-71
2021/11/10 10:21:04;;;;;;;17.35;9.75;;;;;;;6.65;71.41;99566.84;5083660;28;20032;-74
2021/11/10 10:23:32;;;;;;;16.38;9.35;;;;;;;6.90;72.10;99583.97;5085324;28;20135;-71
2021/11/10 10:26:13;;;;;;;19.17;10.57;;;;;;;6.57;72.31;99561.44;5089758;28;20060;-74
2021/11/10 10:28:42;;;;;;;18.40;10.30;;;;;;;6.72;72.74;99575.97;5063921;28;20020;-71
2021/11/10 10:31:11;;;;;;;20.52;11.20;;;;;;;6.84;73.25;99589.13;5081457;28;20025;-70
2021/11/10 10:33:42;;;;;;;20.55;11.13;;;;;;;6.84;73.32;99578.38;5064635;28;20501;-71
2021/11/10 10:36:13;;;;;;;22.65;11.32;;;;;;;6.80;73.05;99585.94;5083422;28;20012;-70
2021/11/10 10:38:42;;;;;;;21.23;10.90;;;;;;;6.97;72.35;99586.88;5080784;28;20036;-71
2021/11/10 10:41:09;;;;;;;16.77;9.05;;;;;;;6.99;73.38;99584.84;5085775;28;20013;-73
2021/11/10 10:43:48;;;;;;;16.02;9.00;;;;;;;7.18;73.45;99589.16;5072610;28;20032;-72
2021/11/10 10:46:14;;;;;;;;;;;;;;;7.09;74.72;99585.56;5082559;28;20029;-73
2021/11/10 10:48:40;;;;;;;17.67;8.82;;;;;;;7.18;74.04;99579.22;5086675;28;20063;-73
2021/11/10 10:51:07;;;;;;;18.52;10.43;;;;;;;7.20;74.52;99566.47;5089228;28;20003;-72
2021/11/10 10:53:43;;;;;;;18.70;10.05;;;;;;;7.36;74.40;99551.34;5085349;28;20027;-71
2021/11/10 10:56:29;;;;;;;19.67;10.57;;;;;;;7.46;72.67;99549.34;5078025;28;20367;-70
2021/11/10 10:59:03;;;;;;;15.07;10.13;;;;;;;7.49;71.36;99549.00;5085055;28;20032;-70
2021/11/10 11:01:32;;;;;;;18.60;10.85;;;;;;;7.51;72.49;99544.31;5084320;28;20052;-70
2021/11/10 11:04:04;;;;;;;18.87;10.67;;;;;;;7.77;71.46;99535.25;5092061;28;20146;-70
2021/11/10 11:06:37;;;;;;;18.55;10.32;;;;;;;7.95;70.49;99540.50;5064162;28;20622;-70
2021/11/10 11:09:26;;;;;;;23.00;11.68;;;;;;;8.08;70.10;99538.97;5084924;28;20027;-69
2021/11/10 11:11:58;;;;;;;29.60;16.17;;;;;;;8.49;69.13;99546.22;5069379;28;20362;-71
2021/11/10 11:17:18;;;;;;;21.63;12.05;;;;;;;8.96;67.04;99527.34;5084909;28;20040;-71
2021/11/10 11:19:55;;;;;;;17.02;10.20;;;;;;;9.51;66.12;99521.97;5077035;28;20051;-70
2021/11/10 11:22:21;;;;;;;22.88;10.45;;;;;;;9.39;65.30;99533.19;5070880;28;20029;-71
2021/11/10 11:24:47;;;;;;;16.90;10.23;;;;;;;9.37;65.59;99524.41;5083513;28;20089;-71